sensor_id;sensor_type;location;lat;lon;timestamp;pressure;altitude;pressure_sealevel;temperature;humidity
43770;BME280;6597;52.218;9.882;2023-11-21T00:00:57;100154.63;;;6.74;100.00
43770;BME280;6597;52.218;9.882;2023-11-21T00:03:23;100170.09;;;6.80;100.00
43770;BME280;6597;52.218;9.882;2023-11-21T00:05:54;100170.84;;;6.85;100.00
43770;BME280;6597;52.218;9.882;2023-11-21T00:08:21;100167.44;;;6.82;100.00
43770;BME280;6597;52.218;9.882;2023-11-21T00:10:47;100163.97;;;6.81;100.00
43770;BME280;6597;52.218;9.882;2023-11-21T00:13:14;100168.19;;;6.87;100.00
43770;BME280;6597;52.218;9.882;2023-11-21T00:15:41;100173.25;;;6.92;100.00
43770;BME280;6597;52.218;9.882;2023-11-21T00:18:07;100178.28;;;6.98;100.00
43770;BME280;6597;52.218;9.882;2023-11-21T00:20:34;100182.56;;;7.00;100.00
43770;BME280;6597;52.218;9.882;2023-11-21T00:23:02;100186.00;;;7.02;100.00
43770;BME280;6597;52.218;9.882;2023-11-21T00:25:28;100179.78;;;7.06;100.00
43770;BME280;6597;52.218;9.882;2023-11-21T00:27:56;100184.91;;;7.09;100.00
43770;BME280;6597;52.218;9.882;2023-11-21T00:30:22;100184.91;;;7.09;100.00
43770;BME280;6597;52.218;9.882;2023-11-21T00:32:49;100184.00;;;7.10;100.00
43770;BME280;6597;52.218;9.882;2023-11-21T00:35:16;100181.28;;;7.13;100.00
43770;BME280;6597;52.218;9.882;2023-11-21T00:37:42;100179.53;;;7.14;100.00
43770;BME280;6597;52.218;9.882;2023-11-21T00:40:11;100179.47;;;7.17;100.00
43770;BME280;6597;52.218;9.882;2023-11-21T00:42:40;100180.38;;;7.14;100.00
43770;BME280;6597;52.218;9.882;2023-11-21T00:45:08;100180.44;;;7.13;100.00
43770;BME280;6597;52.218;9.882;2023-11-21T00:47:35;100181.34;;;7.12;100.00
43770;BME280;6597;52.218;9.882;2023-11-21T00:50:01;100175.16;;;7.14;100.00
43770;BME280;6597;52.218;9.882;2023-11-21T00:52:29;100187.31;;;7.17;100.00
43770;BME280;6597;52.218;9.882;2023-11-21T00:54:56;100180.38;;;7.14;100.00
43770;BME280;6597;52.218;9.882;2023-11-21T00:57:26;100183.94;;;7.12;100.00
43770;BME280;6597;52.218;9.882;2023-11-21T00:59:52;100183.13;;;7.10;100.00
43770;BME280;6597;52.218;9.882;2023-11-21T01:02:19;100188.41;;;7.08;100.00
43770;BME280;6597;52.218;9.882;2023-11-21T01:04:46;100193.72;;;7.05;100.00
43770;BME280;6597;52.218;9.882;2023-11-21T01:07:14;100194.53;;;7.07;100.00
43770;BME280;6597;52.218;9.882;2023-11-21T01:09:40;100197.84;;;7.12;100.00
43770;BME280;6597;52.218;9.882;2023-11-21T01:12:09;100196.09;;;7.13;100.00
43770;BME280;6597;52.218;9.882;2023-11-21T01:14:38;100202.09;;;7.16;100.00
43770;BME280;6597;52.218;9.882;2023-11-21T01:17:04;100208.13;;;7.18;100.00
43770;BME280;6597;52.218;9.882;2023-11-21T01:19:31;100207.31;;;7.16;100.00
43770;BME280;6597;52.218;9.882;2023-11-21T01:21:59;100209.09;;;7.16;100.00
43770;BME280;6597;52.218;9.882;2023-11-21T01:24:26;100215.03;;;7.21;100.00
43770;BME280;6597;52.218;9.882;2023-11-21T01:26:52;100218.38;;;7.25;100.00
43770;BME280;6597;52.218;9.882;2023-11-21T01:29:19;100215.72;;;7.26;100.00
43770;BME280;6597;52.218;9.882;2023-11-21T01:31:47;100216.50;;;7.30;100.00
43770;BME280;6597;52.218;9.882;2023-11-21T01:34:13;100216.50;;;7.30;100.00
43770;BME280;6597;52.218;9.882;2023-11-21T01:36:40;100215.63;;;7.29;100.00
43770;BME280;6597;52.218;9.882;2023-11-21T01:39:07;100216.44;;;7.31;100.00
43770;BME280;6597;52.218;9.882;2023-11-21T01:41:33;100215.50;;;7.34;100.00
43770;BME280;6597;52.218;9.882;2023-11-21T01:44:01;100218.75;;;7.40;100.00
43770;BME280;6597;52.218;9.882;2023-11-21T01:46:28;100215.19;;;7.43;100.00
43770;BME280;6597;52.218;9.882;2023-11-21T01:48:57;100223.09;;;7.41;100.00
43770;BME280;6597;52.218;9.882;2023-11-21T01:51:23;100230.13;;;7.39;100.00
43770;BME280;6597;52.218;9.882;2023-11-21T01:53:52;100235.28;;;7.41;100.00
43770;BME280;6597;52.218;9.882;2023-11-21T01:56:18;100225.56;;;7.46;100.00
43770;BME280;6597;52.218;9.882;2023-11-21T01:58:45;100222.09;;;7.45;100.00
43770;BME280;6597;52.218;9.882;2023-11-21T02:01:12;100217.81;;;7.43;100.00
43770;BME280;6597;52.218;9.882;2023-11-21T02:03:39;100234.25;;;7.46;100.00
43770;BME280;6597;52.218;9.882;2023-11-21T02:06:08;100236.75;;;7.51;100.00
43770;BME280;6597;52.218;9.882;2023-11-21T02:08:35;100236.00;;;7.46;100.00
43770;BME280;6597;52.218;9.882;2023-11-21T02:11:03;100238.59;;;7.46;100.00
43770;BME280;6597;52.218;9.882;2023-11-21T02:13:30;100234.28;;;7.45;100.00
43770;BME280;6597;52.218;9.882;2023-11-21T02:15:58;100236.94;;;7.43;100.00
43770;BME280;6597;52.218;9.882;2023-11-21T02:18:25;100225.69;;;7.41;100.00
43770;BME280;6597;52.218;9.882;2023-11-21T02:20:55;100231.81;;;7.40;100.00
43770;BME280;6597;52.218;9.882;2023-11-21T02:23:23;100236.19;;;7.40;100.00
43770;BME280;6597;52.218;9.882;2023-11-21T02:25:54;100238.03;;;7.36;100.00
43770;BME280;6597;52.218;9.882;2023-11-21T02:28:21;100243.31;;;7.35;100.00
43770;BME280;6597;52.218;9.882;2023-11-21T02:30:52;100244.22;;;7.34;100.00
43770;BME280;6597;52.218;9.882;2023-11-21T02:33:21;100242.47;;;7.34;100.00
43770;BME280;6597;52.218;9.882;2023-11-21T02:35:47;100244.22;;;7.34;100.00
43770;BME280;6597;52.218;9.882;2023-11-21T02:38:14;100245.06;;;7.34;100.00
43770;BME280;6597;52.218;9.882;2023-11-21T02:40:42;100248.66;;;7.30;100.00
43770;BME280;6597;52.218;9.882;2023-11-21T02:43:09;100249.53;;;7.31;100.00
43770;BME280;6597;52.218;9.882;2023-11-21T02:45:35;100245.22;;;7.30;100.00
43770;BME280;6597;52.218;9.882;2023-11-21T02:48:02;100243.41;;;7.32;100.00
43770;BME280;6597;52.218;9.882;2023-11-21T02:50:29;100244.31;;;7.31;100.00
43770;BME280;6597;52.218;9.882;2023-11-21T02:52:56;100239.19;;;7.28;100.00
43770;BME280;6597;52.218;9.882;2023-11-21T02:55:25;100242.69;;;7.27;100.00
43770;BME280;6597;52.218;9.882;2023-11-21T02:57:54;100242.75;;;7.25;100.00
43770;BME280;6597;52.218;9.882;2023-11-21T03:00:22;100238.28;;;7.29;100.00
43770;BME280;6597;52.218;9.882;2023-11-21T03:02:51;100238.31;;;7.27;100.00
43770;BME280;6597;52.218;9.882;2023-11-21T03:05:18;100240.09;;;7.27;100.00
43770;BME280;6597;52.218;9.882;2023-11-21T03:07:45;100246.22;;;7.26;100.00
43770;BME280;6597;52.218;9.882;2023-11-21T03:10:11;100252.22;;;7.28;100.00
43770;BME280;6597;52.218;9.882;2023-11-21T03:12:38;100256.56;;;7.29;100.00
43770;BME280;6597;52.218;9.882;2023-11-21T03:15:07;100257.50;;;7.26;100.00
43770;BME280;6597;52.218;9.882;2023-11-21T03:17:35;100261.97;;;7.23;100.00
43770;BME280;6597;52.218;9.882;2023-11-21T03:20:03;100266.31;;;7.22;100.00
43770;BME280;6597;52.218;9.882;2023-11-21T03:22:29;100263.75;;;7.21;100.00
43770;BME280;6597;52.218;9.882;2023-11-21T03:24:56;100277.63;;;7.23;100.00
43770;BME280;6597;52.218;9.882;2023-11-21T03:27:23;100276.88;;;7.19;100.00
43770;BME280;6597;52.218;9.882;2023-11-21T03:29:50;100279.47;;;7.19;100.00
43770;BME280;6597;52.218;9.882;2023-11-21T03:32:18;100291.66;;;7.18;100.00
43770;BME280;6597;52.218;9.882;2023-11-21T03:34:57;100284.78;;;7.16;100.00
43770;BME280;6597;52.218;9.882;2023-11-21T03:37:24;100291.63;;;7.20;100.00
43770;BME280;6597;52.218;9.882;2023-11-21T03:39:54;100294.28;;;7.18;100.00
43770;BME280;6597;52.218;9.882;2023-11-21T03:42:21;100296.03;;;7.18;100.00
43770;BME280;6597;52.218;9.882;2023-11-21T03:44:48;100291.72;;;7.17;100.00
43770;BME280;6597;52.218;9.882;2023-11-21T03:47:14;100295.09;;;7.21;100.00
43770;BME280;6597;52.218;9.882;2023-11-21T03:49:42;100296.75;;;7.23;100.00
43770;BME280;6597;52.218;9.882;2023-11-21T03:52:09;100290.63;;;7.24;100.00
43770;BME280;6597;52.218;9.882;2023-11-21T03:54:35;100303.63;;;7.26;100.00
43770;BME280;6597;52.218;9.882;2023-11-21T03:57:03;100309.75;;;7.25;100.00
43770;BME280;6597;52.218;9.882;2023-11-21T03:59:29;100301.94;;;7.25;100.00
43770;BME280;6597;52.218;9.882;2023-11-21T04:01:56;100300.13;;;7.27;100.00
43770;BME280;6597;52.218;9.882;2023-11-21T04:04:23;100302.78;;;7.25;100.00
43770;BME280;6597;52.218;9.882;2023-11-21T04:06:51;100301.06;;;7.24;100.00
43770;BME280;6597;52.218;9.882;2023-11-21T04:09:18;100303.72;;;7.23;100.00
43770;BME280;6597;52.218;9.882;2023-11-21T04:11:45;100303.69;;;7.24;100.00
43770;BME280;6597;52.218;9.882;2023-11-21T04:14:11;100313.28;;;7.24;100.00
43770;BME280;6597;52.218;9.882;2023-11-21T04:16:38;100317.59;;;7.25;100.00
43770;BME280;6597;52.218;9.882;2023-11-21T04:19:05;100315.03;;;7.23;100.00
43770;BME280;6597;52.218;9.882;2023-11-21T04:21:31;100315.97;;;7.21;100.00
43770;BME280;6597;52.218;9.882;2023-11-21T04:24:00;100319.44;;;7.21;100.00
43770;BME280;6597;52.218;9.882;2023-11-21T04:26:26;100327.19;;;7.24;100.00
43770;BME280;6597;52.218;9.882;2023-11-21T04:28:53;100328.03;;;7.25;100.00
43770;BME280;6597;52.218;9.882;2023-11-21T04:31:19;100327.22;;;7.23;100.00
43770;BME280;6597;52.218;9.882;2023-11-21T04:33:46;100327.22;;;7.23;100.00
43770;BME280;6597;52.218;9.882;2023-11-21T04:36:12;100334.97;;;7.26;100.00
43770;BME280;6597;52.218;9.882;2023-11-21T04:38:39;100332.34;;;7.26;100.00
43770;BME280;6597;52.218;9.882;2023-11-21T04:41:07;100339.25;;;7.28;100.00
43770;BME280;6597;52.218;9.882;2023-11-21T04:43:34;100334.88;;;7.29;100.00
43770;BME280;6597;52.218;9.882;2023-11-21T04:46:01;100341.00;;;7.28;100.00
43770;BME280;6597;52.218;9.882;2023-11-21T04:48:28;100348.03;;;7.26;100.00
43770;BME280;6597;52.218;9.882;2023-11-21T04:50:54;100351.47;;;7.26;100.00
43770;BME280;6597;52.218;9.882;2023-11-21T04:53:21;100352.34;;;7.27;100.00
43770;BME280;6597;52.218;9.882;2023-11-21T04:55:47;100355.84;;;7.26;100.00
43770;BME280;6597;52.218;9.882;2023-11-21T04:58:15;100367.19;;;7.25;100.00
43770;BME280;6597;52.218;9.882;2023-11-21T05:00:42;100359.31;;;7.26;100.00
43770;BME280;6597;52.218;9.882;2023-11-21T05:03:09;100368.06;;;7.25;100.00
43770;BME280;6597;52.218;9.882;2023-11-21T05:05:36;100367.25;;;7.23;100.00
43770;BME280;6597;52.218;9.882;2023-11-21T05:08:03;100374.16;;;7.24;100.00
43770;BME280;6597;52.218;9.882;2023-11-21T05:10:30;100370.66;;;7.25;100.00
43770;BME280;6597;52.218;9.882;2023-11-21T05:12:56;100374.13;;;7.26;100.00
43770;BME280;6597;52.218;9.882;2023-11-21T05:15:25;100376.69;;;7.27;100.00
43770;BME280;6597;52.218;9.882;2023-11-21T05:17:52;100374.16;;;7.24;100.00
43770;BME280;6597;52.218;9.882;2023-11-21T05:20:20;100375.13;;;7.22;100.00
43770;BME280;6597;52.218;9.882;2023-11-21T05:22:47;100379.44;;;7.23;100.00
43770;BME280;6597;52.218;9.882;2023-11-21T05:25:13;100388.97;;;7.24;100.00
43770;BME280;6597;52.218;9.882;2023-11-21T05:27:40;100393.34;;;7.23;100.00
43770;BME280;6597;52.218;9.882;2023-11-21T05:30:07;100390.69;;;7.25;100.00
43770;BME280;6597;52.218;9.882;2023-11-21T05:32:39;100393.31;;;7.25;100.00
43770;BME280;6597;52.218;9.882;2023-11-21T05:35:08;100389.84;;;7.24;100.00
43770;BME280;6597;52.218;9.882;2023-11-21T05:37:38;100397.63;;;7.26;100.00
43770;BME280;6597;52.218;9.882;2023-11-21T05:40:06;100403.75;;;7.25;100.00
43770;BME280;6597;52.218;9.882;2023-11-21T05:42:32;100405.41;;;7.27;100.00
43770;BME280;6597;52.218;9.882;2023-11-21T05:44:58;100403.66;;;7.28;100.00
43770;BME280;6597;52.218;9.882;2023-11-21T05:47:36;100408.91;;;7.26;100.00
43770;BME280;6597;52.218;9.882;2023-11-21T05:50:06;100406.34;;;7.25;100.00
43770;BME280;6597;52.218;9.882;2023-11-21T05:52:35;100408.06;;;7.26;100.00
43770;BME280;6597;52.218;9.882;2023-11-21T05:55:02;100409.81;;;7.25;100.00
43770;BME280;6597;52.218;9.882;2023-11-21T05:57:29;100415.09;;;7.24;100.00
43770;BME280;6597;52.218;9.882;2023-11-21T05:59:55;100416.81;;;7.25;100.00
43770;BME280;6597;52.218;9.882;2023-11-21T06:02:22;100416.81;;;7.25;100.00
43770;BME280;6597;52.218;9.882;2023-11-21T06:04:48;100429.03;;;7.23;100.00
43770;BME280;6597;52.218;9.882;2023-11-21T06:07:18;100433.41;;;7.22;100.00
43770;BME280;6597;52.218;9.882;2023-11-21T06:09:45;100425.56;;;7.22;100.00
43770;BME280;6597;52.218;9.882;2023-11-21T06:12:11;100436.81;;;7.24;100.00
43770;BME280;6597;52.218;9.882;2023-11-21T06:14:38;100428.94;;;7.26;100.00
43770;BME280;6597;52.218;9.882;2023-11-21T06:17:04;100437.59;;;7.28;100.00
43770;BME280;6597;52.218;9.882;2023-11-21T06:19:31;100438.47;;;7.28;100.00
43770;BME280;6597;52.218;9.882;2023-11-21T06:21:57;100440.09;;;7.32;100.00
43770;BME280;6597;52.218;9.882;2023-11-21T06:24:26;100446.97;;;7.35;100.00
43770;BME280;6597;52.218;9.882;2023-11-21T06:26:53;100447.88;;;7.34;100.00
43770;BME280;6597;52.218;9.882;2023-11-21T06:29:19;100451.34;;;7.34;100.00
43770;BME280;6597;52.218;9.882;2023-11-21T06:31:47;100460.88;;;7.35;100.00
43770;BME280;6597;52.218;9.882;2023-11-21T06:34:13;100456.47;;;7.37;100.00
43770;BME280;6597;52.218;9.882;2023-11-21T06:36:40;100462.59;;;7.36;100.00
43770;BME280;6597;52.218;9.882;2023-11-21T06:39:06;100466.03;;;7.38;100.00
43770;BME280;6597;52.218;9.882;2023-11-21T06:41:35;100465.97;;;7.40;100.00
43770;BME280;6597;52.218;9.882;2023-11-21T06:44:04;100472.06;;;7.40;100.00
43770;BME280;6597;52.218;9.882;2023-11-21T06:46:30;100476.44;;;7.40;100.00
43770;BME280;6597;52.218;9.882;2023-11-21T06:48:57;100479.84;;;7.42;100.00
43770;BME280;6597;52.218;9.882;2023-11-21T06:51:23;100485.03;;;7.43;100.00
43770;BME280;6597;52.218;9.882;2023-11-21T06:53:50;100479.78;;;7.45;100.00
43770;BME280;6597;52.218;9.882;2023-11-21T06:56:16;100496.25;;;7.47;100.00
43770;BME280;6597;52.218;9.882;2023-11-21T06:58:45;100490.22;;;7.45;100.00
43770;BME280;6597;52.218;9.882;2023-11-21T07:01:12;100502.38;;;7.46;100.00
43770;BME280;6597;52.218;9.882;2023-11-21T07:03:38;100501.53;;;7.45;100.00
43770;BME280;6597;52.218;9.882;2023-11-21T07:06:06;100502.34;;;7.47;100.00
43770;BME280;6597;52.218;9.882;2023-11-21T07:08:33;100511.06;;;7.46;100.00
43770;BME280;6597;52.218;9.882;2023-11-21T07:11:00;100521.50;;;7.46;100.00
43770;BME280;6597;52.218;9.882;2023-11-21T07:13:28;100518.00;;;7.49;100.00
43770;BME280;6597;52.218;9.882;2023-11-21T07:15:56;100524.91;;;7.52;100.00
43770;BME280;6597;52.218;9.882;2023-11-21T07:18:23;100518.78;;;7.53;100.00
43770;BME280;6597;52.218;9.882;2023-11-21T07:20:49;100525.78;;;7.51;100.00
43770;BME280;6597;52.218;9.882;2023-11-21T07:23:17;100544.06;;;7.51;100.00
43770;BME280;6597;52.218;9.882;2023-11-21T07:25:43;100546.00;;;7.42;100.00
43770;BME280;6597;52.218;9.882;2023-11-21T07:28:10;100550.00;;;7.23;100.00
43770;BME280;6597;52.218;9.882;2023-11-21T07:30:36;100554.50;;;7.16;100.00
43770;BME280;6597;52.218;9.882;2023-11-21T07:33:05;100550.38;;;7.06;100.00
43770;BME280;6597;52.218;9.882;2023-11-21T07:35:32;100563.72;;;6.94;100.00
43770;BME280;6597;52.218;9.882;2023-11-21T07:37:59;100566.53;;;6.86;100.00
43770;BME280;6597;52.218;9.882;2023-11-21T07:40:26;100571.81;;;6.82;100.00
43770;BME280;6597;52.218;9.882;2023-11-21T07:42:52;100574.53;;;6.77;100.00
43770;BME280;6597;52.218;9.882;2023-11-21T07:45:22;100580.78;;;6.70;100.00
43770;BME280;6597;52.218;9.882;2023-11-21T07:47:49;100588.88;;;6.58;100.00
43770;BME280;6597;52.218;9.882;2023-11-21T07:50:17;100588.16;;;6.51;100.00
43770;BME280;6597;52.218;9.882;2023-11-21T07:52:44;100588.16;;;6.50;100.00
43770;BME280;6597;52.218;9.882;2023-11-21T07:55:11;100595.13;;;6.49;100.00
43770;BME280;6597;52.218;9.882;2023-11-21T07:57:37;100601.41;;;6.41;100.00
43770;BME280;6597;52.218;9.882;2023-11-21T08:00:05;100616.22;;;6.39;100.00
43770;BME280;6597;52.218;9.882;2023-11-21T08:02:38;100620.72;;;6.31;100.00
43770;BME280;6597;52.218;9.882;2023-11-21T08:05:05;100624.22;;;6.30;100.00
43770;BME280;6597;52.218;9.882;2023-11-21T08:07:33;100625.06;;;6.32;100.00
43770;BME280;6597;52.218;9.882;2023-11-21T08:10:00;100632.03;;;6.31;100.00
43770;BME280;6597;52.218;9.882;2023-11-21T08:12:26;100632.91;;;6.30;100.00
43770;BME280;6597;52.218;9.882;2023-11-21T08:14:53;100640.81;;;6.26;100.00
43770;BME280;6597;52.218;9.882;2023-11-21T08:17:20;100640.81;;;6.26;100.00
43770;BME280;6597;52.218;9.882;2023-11-21T08:19:46;100641.75;;;6.23;100.00
43770;BME280;6597;52.218;9.882;2023-11-21T08:22:14;100647.03;;;6.20;100.00
43770;BME280;6597;52.218;9.882;2023-11-21T08:24:43;100647.06;;;6.18;100.00
43770;BME280;6597;52.218;9.882;2023-11-21T08:27:11;100660.22;;;6.09;100.00
43770;BME280;6597;52.218;9.882;2023-11-21T08:29:41;100662.88;;;6.08;100.00
43770;BME280;6597;52.218;9.882;2023-11-21T08:32:08;100667.22;;;6.07;100.00
43770;BME280;6597;52.218;9.882;2023-11-21T08:34:34;100664.72;;;6.01;100.00
43770;BME280;6597;52.218;9.882;2023-11-21T08:37:01;100667.31;;;6.03;100.00
43770;BME280;6597;52.218;9.882;2023-11-21T08:39:28;100671.59;;;6.05;100.00
43770;BME280;6597;52.218;9.882;2023-11-21T08:41:57;100676.78;;;6.07;100.00
43770;BME280;6597;52.218;9.882;2023-11-21T08:44:23;100674.28;;;6.01;100.00
43770;BME280;6597;52.218;9.882;2023-11-21T08:46:50;100684.78;;;5.96;100.00
43770;BME280;6597;52.218;9.882;2023-11-21T08:49:16;100682.22;;;5.95;100.00
43770;BME280;6597;52.218;9.882;2023-11-21T08:51:44;100684.88;;;5.91;100.00
43770;BME280;6597;52.218;9.882;2023-11-21T08:54:11;100683.16;;;5.89;100.00
43770;BME280;6597;52.218;9.882;2023-11-21T08:56:37;100685.78;;;5.90;100.00
43770;BME280;6597;52.218;9.882;2023-11-21T08:59:05;100689.28;;;5.86;100.00
43770;BME280;6597;52.218;9.882;2023-11-21T09:01:33;100691.00;;;5.87;100.00
43770;BME280;6597;52.218;9.882;2023-11-21T09:03:59;100703.16;;;5.90;100.00
43770;BME280;6597;52.218;9.882;2023-11-21T09:06:27;100704.91;;;5.86;100.00
43770;BME280;6597;52.218;9.882;2023-11-21T09:08:54;100708.41;;;5.84;100.00
43770;BME280;6597;52.218;9.882;2023-11-21T09:11:20;100708.34;;;5.90;100.00
43770;BME280;6597;52.218;9.882;2023-11-21T09:13:47;100717.88;;;5.91;100.00
43770;BME280;6597;52.218;9.882;2023-11-21T09:16:15;100710.97;;;5.87;100.00
43770;BME280;6597;52.218;9.882;2023-11-21T09:18:41;100723.09;;;5.91;100.00
43770;BME280;6597;52.218;9.882;2023-11-21T09:21:08;100727.47;;;5.87;100.00
43770;BME280;6597;52.218;9.882;2023-11-21T09:23:35;100731.78;;;5.91;100.00
43770;BME280;6597;52.218;9.882;2023-11-21T09:26:02;100743.97;;;5.85;100.00
43770;BME280;6597;52.218;9.882;2023-11-21T09:28:28;100748.44;;;5.78;100.00
43770;BME280;6597;52.218;9.882;2023-11-21T09:30:55;100752.00;;;5.73;100.00
43770;BME280;6597;52.218;9.882;2023-11-21T09:33:23;100752.09;;;5.67;100.00
43770;BME280;6597;52.218;9.882;2023-11-21T09:35:50;100759.06;;;5.66;100.00
43770;BME280;6597;52.218;9.882;2023-11-21T09:38:18;100770.22;;;5.74;100.00
43770;BME280;6597;52.218;9.882;2023-11-21T09:40:44;100778.75;;;5.82;100.00
43770;BME280;6597;52.218;9.882;2023-11-21T09:43:16;100777.91;;;5.82;100.00
43770;BME280;6597;52.218;9.882;2023-11-21T09:45:45;100788.34;;;5.80;100.00
43770;BME280;6597;52.218;9.882;2023-11-21T09:48:12;100788.38;;;5.77;100.00
43770;BME280;6597;52.218;9.882;2023-11-21T09:50:41;100793.47;;;5.85;100.00
43770;BME280;6597;52.218;9.882;2023-11-21T09:53:13;100797.78;;;5.90;100.00
43770;BME280;6597;52.218;9.882;2023-11-21T09:55:42;100798.63;;;5.92;100.00
43770;BME280;6597;52.218;9.882;2023-11-21T09:58:09;100796.69;;;6.05;100.00
43770;BME280;6597;52.218;9.882;2023-11-21T10:00:40;100801.81;;;6.10;100.00
43770;BME280;6597;52.218;9.882;2023-11-21T10:03:07;100810.47;;;6.12;100.00
43770;BME280;6597;52.218;9.882;2023-11-21T10:05:34;100810.44;;;6.13;100.00
43770;BME280;6597;52.218;9.882;2023-11-21T10:08:02;100819.09;;;6.15;100.00
43770;BME280;6597;52.218;9.882;2023-11-21T10:10:32;100811.22;;;6.21;100.00
43770;BME280;6597;52.218;9.882;2023-11-21T10:13:02;100820.78;;;6.21;100.00
43770;BME280;6597;52.218;9.882;2023-11-21T10:15:29;100825.13;;;6.20;100.00
43770;BME280;6597;52.218;9.882;2023-11-21T10:18:00;100810.38;;;6.16;100.00
43770;BME280;6597;52.218;9.882;2023-11-21T10:20:29;100826.78;;;6.24;100.00
43770;BME280;6597;52.218;9.882;2023-11-21T10:22:55;100825.03;;;6.25;100.00
43770;BME280;6597;52.218;9.882;2023-11-21T10:25:24;100831.03;;;6.30;100.00
43770;BME280;6597;52.218;9.882;2023-11-21T10:27:57;100823.44;;;6.18;100.00
43770;BME280;6597;52.218;9.882;2023-11-21T10:30:28;100835.41;;;6.28;100.00
43770;BME280;6597;52.218;9.882;2023-11-21T10:32:58;100842.34;;;6.29;100.00
43770;BME280;6597;52.218;9.882;2023-11-21T10:35:38;100845.00;;;6.28;100.00
43770;BME280;6597;52.218;9.882;2023-11-21T10:38:05;100848.41;;;6.31;100.00
43770;BME280;6597;52.218;9.882;2023-11-21T10:40:37;100851.94;;;6.27;100.00
43770;BME280;6597;52.218;9.882;2023-11-21T10:43:06;100861.50;;;6.28;100.00
43770;BME280;6597;52.218;9.882;2023-11-21T10:45:34;100873.59;;;6.32;100.00
43770;BME280;6597;52.218;9.882;2023-11-21T10:48:05;100865.81;;;6.29;100.00
43770;BME280;6597;52.218;9.882;2023-11-21T10:50:32;100864.91;;;6.32;100.00
43770;BME280;6597;52.218;9.882;2023-11-21T10:53:01;100868.38;;;6.32;100.00
43770;BME280;6597;52.218;9.882;2023-11-21T10:55:29;100872.69;;;6.35;100.00
43770;BME280;6597;52.218;9.882;2023-11-21T10:57:59;100876.13;;;6.37;100.00
43770;BME280;6597;52.218;9.882;2023-11-21T11:00:27;100877.75;;;6.42;100.00
43770;BME280;6597;52.218;9.882;2023-11-21T11:02:54;100885.63;;;6.39;100.00
43770;BME280;6597;52.218;9.882;2023-11-21T11:05:22;100888.19;;;6.42;100.00
43770;BME280;6597;52.218;9.882;2023-11-21T11:07:54;100894.25;;;6.44;100.00
43770;BME280;6597;52.218;9.882;2023-11-21T11:10:25;100892.69;;;6.34;100.00
43770;BME280;6597;52.218;9.882;2023-11-21T11:12:53;100899.59;;;6.37;100.00
43770;BME280;6597;52.218;9.882;2023-11-21T11:15:22;100900.50;;;6.34;100.00
43770;BME280;6597;52.218;9.882;2023-11-21T11:17:48;100911.72;;;6.38;100.00
43770;BME280;6597;52.218;9.882;2023-11-21T11:20:16;100900.44;;;6.37;100.00
43770;BME280;6597;52.218;9.882;2023-11-21T11:22:52;100905.72;;;6.34;100.00
43770;BME280;6597;52.218;9.882;2023-11-21T11:25:44;100902.13;;;6.40;100.00
43770;BME280;6597;52.218;9.882;2023-11-21T11:28:16;100906.41;;;6.44;100.00
43770;BME280;6597;52.218;9.882;2023-11-21T11:30:57;100908.09;;;6.48;100.00
43770;BME280;6597;52.218;9.882;2023-11-21T11:33:35;100916.72;;;6.53;100.00
43770;BME280;6597;52.218;9.882;2023-11-21T11:36:06;100912.41;;;6.49;100.00
43770;BME280;6597;52.218;9.882;2023-11-21T11:38:36;100913.28;;;6.51;100.00
43770;BME280;6597;52.218;9.882;2023-11-21T11:41:05;100915.88;;;6.49;100.00
43770;BME280;6597;52.218;9.882;2023-11-21T11:43:32;100914.16;;;6.51;100.00
43770;BME280;6597;52.218;9.882;2023-11-21T11:46:10;100913.19;;;6.57;100.00
43770;BME280;6597;52.218;9.882;2023-11-21T11:48:39;100920.13;;;6.58;100.00
43770;BME280;6597;52.218;9.882;2023-11-21T11:51:06;100923.59;;;6.59;100.00
43770;BME280;6597;52.218;9.882;2023-11-21T11:53:38;100925.31;;;6.60;100.00
43770;BME280;6597;52.218;9.882;2023-11-21T11:56:26;100931.38;;;6.60;100.00
43770;BME280;6597;52.218;9.882;2023-11-21T11:58:54;100940.19;;;6.54;100.00
43770;BME280;6597;52.218;9.882;2023-11-21T12:01:24;100934.81;;;6.64;100.00
43770;BME280;6597;52.218;9.882;2023-11-21T12:04:24;100942.56;;;6.68;100.00
43770;BME280;6597;52.218;9.882;2023-11-21T12:06:59;100950.44;;;6.64;100.00
43770;BME280;6597;52.218;9.882;2023-11-21T12:13:14;100937.25;;;6.73;100.00
43770;BME280;6597;52.218;9.882;2023-11-21T12:15:42;100945.91;;;6.75;100.00
43770;BME280;6597;52.218;9.882;2023-11-21T12:18:10;100955.47;;;6.76;100.00
43770;BME280;6597;52.218;9.882;2023-11-21T12:20:37;100952.75;;;6.83;100.00
43770;BME280;6597;52.218;9.882;2023-11-21T12:23:07;100939.81;;;6.76;100.00
43770;BME280;6597;52.218;9.882;2023-11-21T12:25:35;100963.13;;;6.86;100.00
43770;BME280;6597;52.218;9.882;2023-11-21T12:28:02;100967.34;;;6.95;100.00
43770;BME280;6597;52.218;9.882;2023-11-21T12:30:31;100944.03;;;6.84;100.00
43770;BME280;6597;52.218;9.882;2023-11-21T12:32:59;100967.50;;;6.86;100.00
43770;BME280;6597;52.218;9.882;2023-11-21T12:35:31;100972.72;;;6.86;100.00
43770;BME280;6597;52.218;9.882;2023-11-21T12:37:59;100968.47;;;6.79;100.00
43770;BME280;6597;52.218;9.882;2023-11-21T12:40:28;100966.88;;;6.70;100.00
43770;BME280;6597;52.218;9.882;2023-11-21T12:42:56;100972.09;;;6.70;100.00
43770;BME280;6597;52.218;9.882;2023-11-21T12:45:25;100954.97;;;6.54;100.00
43770;BME280;6597;52.218;9.882;2023-11-21T12:47:55;100986.97;;;6.64;100.00
43770;BME280;6597;52.218;9.882;2023-11-21T12:50:25;100965.34;;;6.57;100.00
43770;BME280;6597;52.218;9.882;2023-11-21T12:52:59;100995.59;;;6.69;100.00
43770;BME280;6597;52.218;9.882;2023-11-21T12:55:26;100977.47;;;6.60;100.00
43770;BME280;6597;52.218;9.882;2023-11-21T12:57:56;100988.69;;;6.65;100.00
43770;BME280;6597;52.218;9.882;2023-11-21T13:00:28;100996.66;;;6.55;100.00
43770;BME280;6597;52.218;9.882;2023-11-21T13:02:58;100993.19;;;6.55;100.00
43770;BME280;6597;52.218;9.882;2023-11-21T13:05:26;101002.56;;;6.67;100.00
43770;BME280;6597;52.218;9.882;2023-11-21T13:07:55;101009.41;;;6.75;100.00